Ackworth, Iowa
Current Conditions -  °F | °C
As of 9:54 AM on Saturday 25 Oct 2014 (Local Time) from KDSM Reporting Station
Few Clouds Few Clouds  
Wind Chill: 61°   Ceiling: Unl
Heat Index: 61°   Visibility: 10mi
Dew Point: 45°   Wind: 7mph
Humidity: 56%   Direction: 10°N
Pressure: 30.1"   Gusts: NA
Location:  41.37°N, 93.47°W
Report Text: KDSM 251454Z 01006KT 10SM FEW250 16/07 A3010 RMK AO2 SLP191 T01610072 51024 $
Loading
Personal Weather Stations






























Interactive Weather Map New forecast layout! Learn more

10-Day Weather Forecast

Advertisements
Track Severe Weather on mobile